Time;durP1;ratioP1;P1;durP2;ratioP2;P2;SDS_P1;SDS_P2;PMS_P1;PMS_P2;Temp;Humidity;BMP_temperature;BMP_pressure;BME280_temperature;BME280_humidity;BME280_pressure;Samples;Min_cycle;Max_cycle;Signal;HPM_P1;HPM_P2
2024/04/13 00:01:23;;;;;;;1.20;0.95;;;8.10;93.50;;;;;;5535252;25;20001;-87
2024/04/13 00:03:52;;;;;;;1.45;0.82;;;8.10;93.00;;;;;;5535256;25;19997;-85
2024/04/13 00:06:18;;;;;;;2.58;1.35;;;8.10;93.10;;;;;;5517013;25;20051;-85
2024/04/13 00:08:44;;;;;;;1.38;1.08;;;8.00;93.00;;;;;;5520527;26;20033;-86
2024/04/13 00:11:10;;;;;;;1.10;0.80;;;8.00;93.00;;;;;;5510062;26;20073;-81
2024/04/13 00:13:36;;;;;;;2.13;1.02;;;8.00;92.50;;;;;;5523839;25;19998;-83
2024/04/13 00:16:03;;;;;;;3.88;0.98;;;7.90;92.10;;;;;;5498974;25;20035;-83
2024/04/13 00:18:32;;;;;;;4.03;1.13;;;7.90;91.90;;;;;;5496113;26;20006;-85
2024/04/13 00:20:58;;;;;;;1.33;0.77;;;7.80;91.70;;;;;;5522248;26;20012;-83
2024/04/13 00:23:24;;;;;;;1.08;0.88;;;7.80;91.70;;;;;;5526297;25;20350;-82
2024/04/13 00:25:54;;;;;;;4.13;0.93;;;7.80;91.70;;;;;;5526205;26;19998;-83
2024/04/13 00:28:19;;;;;;;5.07;0.82;;;7.70;91.90;;;;;;5533608;25;20021;-83
2024/04/13 00:30:48;;;;;;;1.25;1.02;;;7.70;91.80;;;;;;5520329;26;20461;-83
2024/04/13 00:33:14;;;;;;;3.13;1.15;;;7.70;91.70;;;;;;5528523;25;19997;-83
2024/04/13 00:35:40;;;;;;;1.20;0.90;;;7.70;91.10;;;;;;5514209;26;20016;-83
2024/04/13 00:38:06;;;;;;;0.95;0.70;;;7.60;90.90;;;;;;5524687;26;20074;-84
2024/04/13 00:40:32;;;;;;;0.73;0.70;;;7.60;91.00;;;;;;5525929;25;20013;-83
2024/04/13 00:43:11;;;;;;;0.90;0.60;;;7.60;90.90;;;;;;5522690;25;20399;-84
2024/04/13 00:45:44;;;;;;;0.80;0.70;;;7.50;90.70;;;;;;5507382;26;19997;-84
2024/04/13 00:48:14;;;;;;;1.25;0.93;;;7.50;90.70;;;;;;5525964;25;20029;-82
2024/04/13 00:50:43;;;;;;;1.42;0.80;;;7.40;90.70;;;;;;5526447;25;20390;-83
2024/04/13 00:53:11;;;;;;;1.55;0.50;;;7.40;90.50;;;;;;5525918;26;20009;-82
2024/04/13 00:55:43;;;;;;;1.38;0.65;;;7.40;90.40;;;;;;5525713;25;20517;-83
2024/04/13 00:58:13;;;;;;;2.92;1.13;;;7.40;90.30;;;;;;5499839;26;20009;-84
2024/04/13 01:00:40;;;;;;;3.63;0.70;;;7.40;90.30;;;;;;5512778;25;20002;-83
2024/04/13 01:03:08;;;;;;;3.70;0.63;;;7.30;90.20;;;;;;5519151;26;20016;-86
2024/04/13 01:05:34;;;;;;;;;;;7.30;90.10;;;;;;5490742;25;20013;-84
2024/04/13 01:08:01;;;;;;;5.37;0.67;;;7.30;90.10;;;;;;5513590;26;19924;-85
2024/04/13 01:10:27;;;;;;;5.18;0.85;;;7.20;90.20;;;;;;5520313;25;20083;-84
2024/04/13 01:12:54;;;;;;;1.83;0.77;;;7.30;90.20;;;;;;5509404;26;20013;-85
2024/04/13 01:15:20;;;;;;;1.02;0.73;;;7.20;89.90;;;;;;5499815;25;20231;-85
2024/04/13 01:17:47;;;;;;;1.63;0.90;;;7.20;90.00;;;;;;5531534;25;20004;-83
2024/04/13 01:20:13;;;;;;;1.40;1.00;;;7.20;90.10;;;;;;5523445;26;19998;-83
2024/04/13 01:22:43;;;;;;;0.70;0.60;;;7.20;90.00;;;;;;5525687;25;20012;-83
2024/04/13 01:25:09;;;;;;;4.20;1.30;;;7.10;90.00;;;;;;5525919;25;20005;-84
2024/04/13 01:27:36;;;;;;;3.15;1.05;;;7.10;90.00;;;;;;5516133;25;20034;-84
2024/04/13 01:30:03;;;;;;;0.73;0.68;;;7.10;90.10;;;;;;5490026;26;20039;-85
2024/04/13 01:32:30;;;;;;;2.47;1.00;;;7.10;90.30;;;;;;5490082;26;19998;-85
2024/04/13 01:35:10;;;;;;;3.05;1.23;;;7.10;90.40;;;;;;5522069;25;20005;-85
2024/04/13 01:37:41;;;;;;;3.58;0.88;;;7.10;90.40;;;;;;5525010;25;20009;-83
2024/04/13 01:40:09;;;;;;;1.73;1.15;;;7.10;90.50;;;;;;5522680;25;20047;-83
2024/04/13 01:42:35;;;;;;;;;;;7.10;90.60;;;;;;5511518;26;19997;-84
2024/04/13 01:45:02;;;;;;;1.88;1.13;;;7.10;90.50;;;;;;5494834;26;19924;-84
2024/04/13 01:47:28;;;;;;;1.40;0.80;;;7.10;90.70;;;;;;5510675;26;20333;-85
2024/04/13 01:49:53;;;;;;;1.40;0.80;;;7.00;90.80;;;;;;5520561;25;20002;-83
2024/04/13 01:52:22;;;;;;;1.92;1.05;;;7.00;90.90;;;;;;5507714;26;20024;-83
2024/04/13 01:54:48;;;;;;;2.35;1.38;;;7.00;91.00;;;;;;5538368;25;20329;-84
2024/04/13 01:57:14;;;;;;;2.75;1.05;;;7.00;91.10;;;;;;5529393;25;20012;-84
2024/04/13 01:59:41;;;;;;;4.18;1.00;;;7.00;91.20;;;;;;5537595;25;20001;-83
2024/04/13 02:02:07;;;;;;;2.90;0.90;;;6.90;91.30;;;;;;5539853;25;20012;-84
2024/04/13 02:04:33;;;;;;;4.28;0.93;;;6.90;91.40;;;;;;5527171;26;20000;-84
2024/04/13 02:06:59;;;;;;;0.95;0.77;;;6.90;91.30;;;;;;5524759;25;19994;-83
2024/04/13 02:09:25;;;;;;;1.50;1.15;;;6.90;91.10;;;;;;5528141;25;20011;-84
2024/04/13 02:11:51;;;;;;;1.73;1.23;;;6.90;91.10;;;;;;5522650;25;20001;-84
2024/04/13 02:14:17;;;;;;;0.88;0.80;;;6.90;91.20;;;;;;5500048;26;20001;-87
2024/04/13 02:16:43;;;;;;;2.70;1.40;;;6.90;91.20;;;;;;5524945;25;19997;-84
2024/04/13 02:19:09;;;;;;;4.03;1.23;;;6.80;91.30;;;;;;5525205;25;20069;-85
2024/04/13 02:21:35;;;;;;;1.75;1.20;;;6.80;91.50;;;;;;5504198;26;20045;-84
2024/04/13 02:24:01;;;;;;;3.50;1.25;;;6.80;91.50;;;;;;5522367;26;19997;-85
2024/04/13 02:26:28;;;;;;;1.35;1.00;;;6.70;91.50;;;;;;5523367;25;20069;-85
2024/04/13 02:28:54;;;;;;;4.00;1.33;;;6.70;91.50;;;;;;5505330;25;19994;-85
2024/04/13 02:31:20;;;;;;;1.00;0.60;;;6.70;91.50;;;;;;5521989;26;20043;-84
2024/04/13 02:33:46;;;;;;;4.13;1.00;;;6.70;91.40;;;;;;5520910;26;20033;-83
2024/04/13 02:36:12;;;;;;;0.88;0.68;;;6.70;91.30;;;;;;5528136;25;19994;-84
2024/04/13 02:38:39;;;;;;;1.00;0.90;;;6.70;91.30;;;;;;5527706;25;20002;-84
2024/04/13 02:41:05;;;;;;;1.60;1.10;;;6.60;91.30;;;;;;5527053;25;19993;-84
2024/04/13 02:43:31;;;;;;;1.88;1.38;;;6.60;91.30;;;;;;5527424;26;20391;-84
2024/04/13 02:46:08;;;;;;;1.58;1.10;;;6.60;91.20;;;;;;5505290;25;20375;-85
2024/04/13 02:48:43;;;;;;;2.00;0.90;;;6.60;91.10;;;;;;5517674;26;19998;-86
2024/04/13 02:51:11;;;;;;;3.92;1.50;;;6.60;91.00;;;;;;5519185;26;20361;-86
2024/04/13 02:53:37;;;;;;;5.95;1.20;;;6.60;90.80;;;;;;5530487;25;20006;-85
2024/04/13 02:56:04;;;;;;;1.42;1.00;;;6.60;90.80;;;;;;5528480;25;20001;-84
2024/04/13 02:58:30;;;;;;;2.15;1.00;;;6.60;90.80;;;;;;5522701;25;19990;-83
2024/04/13 03:00:58;;;;;;;2.08;1.10;;;6.60;90.70;;;;;;5511218;26;20021;-83
2024/04/13 03:03:25;;;;;;;2.67;1.13;;;6.60;90.70;;;;;;5526649;25;20009;-83
2024/04/13 03:06:17;;;;;;;3.33;1.25;;;6.70;90.70;;;;;;5526159;26;20002;-84
2024/04/13 03:08:44;;;;;;;2.65;0.95;;;6.70;90.60;;;;;;5521570;25;20346;-84
2024/04/13 03:11:11;;;;;;;2.00;1.10;;;6.70;90.40;;;;;;5528018;25;20439;-83
2024/04/13 03:13:37;;;;;;;;;;;6.70;90.50;;;;;;5528527;25;19993;-86
2024/04/13 03:16:05;;;;;;;2.85;1.20;;;6.70;90.30;;;;;;5527913;25;19924;-85
2024/04/13 03:18:32;;;;;;;1.88;1.00;;;6.70;90.30;;;;;;5525800;26;20001;-83
2024/04/13 03:20:58;;;;;;;1.97;1.30;;;6.80;90.30;;;;;;5518104;25;20396;-84
2024/04/13 03:23:28;;;;;;;6.05;1.73;;;6.90;90.20;;;;;;5524052;26;20034;-82
2024/04/13 03:25:54;;;;;;;2.17;1.05;;;6.80;90.10;;;;;;5500999;26;20065;-84
2024/04/13 03:28:23;;;;;;;4.65;1.58;;;6.90;90.10;;;;;;5528701;26;20005;-85
2024/04/13 03:30:49;;;;;;;3.85;1.05;;;6.90;90.00;;;;;;5497915;25;20014;-84
2024/04/13 03:33:15;;;;;;;1.80;1.02;;;7.00;89.70;;;;;;5510765;26;20081;-84
2024/04/13 03:35:41;;;;;;;3.22;1.02;;;7.10;89.70;;;;;;5508607;26;20518;-84
2024/04/13 03:38:07;;;;;;;2.83;1.20;;;7.10;89.90;;;;;;5517714;26;20077;-85
2024/04/13 03:40:36;;;;;;;4.32;1.25;;;7.20;89.60;;;;;;5515857;25;20009;-86
2024/04/13 03:43:03;;;;;;;3.13;0.90;;;7.30;89.20;;;;;;5527107;25;20354;-85
2024/04/13 03:45:29;;;;;;;6.93;1.47;;;7.40;88.90;;;;;;5528789;25;20020;-82
2024/04/13 03:47:55;;;;;;;4.05;1.25;;;7.40;88.40;;;;;;5528497;25;19998;-83
2024/04/13 03:50:22;;;;;;;2.93;1.53;;;7.40;88.50;;;;;;5528053;25;20045;-86
2024/04/13 03:52:47;;;;;;;4.07;1.00;;;7.50;88.30;;;;;;5527729;25;20234;-84
2024/04/13 03:55:13;;;;;;;3.08;1.35;;;7.60;88.30;;;;;;5524386;26;20453;-84
2024/04/13 03:57:39;;;;;;;2.85;1.23;;;7.60;88.30;;;;;;5527815;25;20005;-86
2024/04/13 04:00:06;;;;;;;3.42;1.95;;;7.70;87.80;;;;;;5525784;26;20020;-86
2024/04/13 04:02:35;;;;;;;2.88;1.27;;;7.70;87.70;;;;;;5526458;26;20073;-85
2024/04/13 04:05:04;;;;;;;1.73;1.08;;;7.80;87.90;;;;;;5534401;25;20077;-87
2024/04/13 04:07:31;;;;;;;1.88;1.25;;;7.90;87.40;;;;;;5506658;26;20046;-86
2024/04/13 04:09:57;;;;;;;3.40;1.50;;;7.90;87.00;;;;;;5502997;25;20010;-85
2024/04/13 04:12:23;;;;;;;2.00;1.30;;;7.90;86.60;;;;;;5503244;26;20077;-85
2024/04/13 04:14:49;;;;;;;3.33;1.65;;;8.00;86.10;;;;;;5529562;25;20011;-84
2024/04/13 04:17:15;;;;;;;3.17;1.05;;;8.00;85.80;;;;;;5533417;25;20002;-83
2024/04/13 04:19:40;;;;;;;3.60;1.58;;;8.00;85.40;;;;;;5512555;26;20002;-83
2024/04/13 04:22:06;;;;;;;4.45;1.45;;;7.90;85.80;;;;;;5519793;26;19998;-84
2024/04/13 04:24:32;;;;;;;3.85;1.27;;;8.00;86.10;;;;;;5529013;25;20061;-84
2024/04/13 04:27:04;;;;;;;4.25;1.38;;;8.00;86.30;;;;;;5537897;25;20008;-83
2024/04/13 04:29:30;;;;;;;2.40;1.30;;;8.20;85.60;;;;;;5526696;25;20073;-83
2024/04/13 04:31:56;;;;;;;3.08;1.40;;;8.70;84.00;;;;;;5504367;25;20367;-84
2024/04/13 04:34:22;;;;;;;4.28;1.45;;;9.40;82.20;;;;;;5524278;26;20302;-84
2024/04/13 04:36:48;;;;;;;4.00;1.10;;;10.10;80.30;;;;;;5519575;25;20005;-83
2024/04/13 04:39:14;;;;;;;4.35;1.92;;;10.70;78.80;;;;;;5526281;25;20026;-86
2024/04/13 04:41:40;;;;;;;3.38;1.20;;;11.30;77.50;;;;;;5493988;26;19998;-84
2024/04/13 04:44:06;;;;;;;3.25;1.23;;;11.80;74.70;;;;;;5510845;26;20013;-85
2024/04/13 04:46:32;;;;;;;7.63;1.50;;;12.10;73.30;;;;;;5527296;26;20001;-83
2024/04/13 04:48:57;;;;;;;7.55;2.50;;;12.20;70.60;;;;;;5525998;25;20005;-83
2024/04/13 04:51:24;;;;;;;1.60;1.00;;;12.10;70.60;;;;;;5522192;26;20085;-85
2024/04/13 04:53:49;;;;;;;5.40;1.25;;;12.10;70.30;;;;;;5489357;26;20013;-83
2024/04/13 04:56:15;;;;;;;7.78;1.63;;;12.20;70.10;;;;;;5512302;26;20454;-83
2024/04/13 04:58:42;;;;;;;3.03;1.40;;;12.10;68.90;;;;;;5526843;25;20012;-83
2024/04/13 05:01:08;;;;;;;1.35;0.98;;;12.40;69.00;;;;;;5531463;26;20012;-84
2024/04/13 05:03:33;;;;;;;2.40;1.33;;;12.60;67.60;;;;;;5520643;25;19998;-85
2024/04/13 05:06:00;;;;;;;2.47;1.25;;;12.80;67.00;;;;;;5519792;25;20368;-84
2024/04/13 05:08:25;;;;;;;1.77;0.93;;;13.00;66.90;;;;;;5525304;25;20006;-83
2024/04/13 05:10:51;;;;;;;2.50;1.30;;;13.40;65.90;;;;;;5504940;26;20001;-85
2024/04/13 05:13:20;;;;;;;2.78;1.08;;;13.80;64.10;;;;;;5534457;25;20430;-85
2024/04/13 05:15:46;;;;;;;3.17;1.23;;;14.00;63.90;;;;;;5530079;25;20001;-84
2024/04/13 05:18:12;;;;;;;2.25;1.25;;;14.00;63.30;;;;;;5529624;25;20012;-83
2024/04/13 05:20:37;;;;;;;7.22;2.20;;;14.20;63.00;;;;;;5539801;25;20016;-84
2024/04/13 05:23:07;;;;;;;7.85;1.73;;;14.20;62.90;;;;;;5533318;25;20012;-84
2024/04/13 05:25:33;;;;;;;8.77;2.35;;;14.50;62.10;;;;;;5527260;26;20494;-86
2024/04/13 05:27:59;;;;;;;3.20;1.30;;;14.60;61.60;;;;;;5526161;25;20001;-85
2024/04/13 05:30:26;;;;;;;2.08;1.13;;;14.60;60.90;;;;;;5525504;25;20012;-85
2024/04/13 05:32:52;;;;;;;3.80;1.23;;;14.80;60.50;;;;;;5503599;25;20109;-83
2024/04/13 05:35:18;;;;;;;4.22;1.30;;;14.80;60.30;;;;;;5524646;26;20403;-85
2024/04/13 05:37:44;;;;;;;6.47;1.45;;;15.00;60.20;;;;;;5520937;25;19997;-83
2024/04/13 05:40:13;;;;;;;5.17;1.87;;;15.30;59.70;;;;;;5525034;25;19997;-81
2024/04/13 05:42:39;;;;;;;4.15;1.73;;;15.60;59.10;;;;;;5524823;25;20479;-83
2024/04/13 05:45:05;;;;;;;4.07;1.67;;;15.80;58.20;;;;;;5522692;26;19998;-84
2024/04/13 05:47:32;;;;;;;3.47;1.70;;;15.40;57.70;;;;;;5524556;25;20005;-82
2024/04/13 05:49:59;;;;;;;5.53;2.15;;;15.00;58.90;;;;;;5524405;25;19997;-82
2024/04/13 05:52:24;;;;;;;7.65;3.53;;;14.70;59.30;;;;;;5522844;26;19993;-83
2024/04/13 05:54:50;;;;;;;4.70;1.88;;;14.60;60.00;;;;;;5529773;25;20364;-82
2024/04/13 05:57:16;;;;;;;4.25;1.90;;;14.80;59.60;;;;;;5524022;25;20002;-82
2024/04/13 05:59:42;;;;;;;4.20;1.80;;;14.40;59.50;;;;;;5524618;25;20026;-82
2024/04/13 06:02:09;;;;;;;3.53;1.70;;;14.20;60.30;;;;;;5527937;25;20008;-83
2024/04/13 06:04:35;;;;;;;5.93;2.13;;;14.40;60.30;;;;;;5528438;26;20046;-82
2024/04/13 06:07:01;;;;;;;8.18;1.95;;;14.80;59.80;;;;;;5526386;25;20004;-83
2024/04/13 06:09:27;;;;;;;5.60;2.60;;;15.20;59.20;;;;;;5530554;25;20004;-84
2024/04/13 06:11:52;;;;;;;3.97;2.15;;;15.50;58.30;;;;;;5527141;26;20009;-83
2024/04/13 06:14:19;;;;;;;6.70;2.10;;;15.50;58.30;;;;;;5513784;26;20031;-83
2024/04/13 06:16:45;;;;;;;5.82;2.15;;;15.90;57.60;;;;;;5516633;26;19998;-84
2024/04/13 06:19:14;;;;;;;3.38;1.70;;;15.80;57.20;;;;;;5527375;26;20109;-84
2024/04/13 06:21:40;;;;;;;7.93;2.35;;;15.90;57.10;;;;;;5526690;25;20042;-84
2024/04/13 06:24:06;;;;;;;8.48;2.30;;;16.10;56.90;;;;;;5528510;25;20001;-83
2024/04/13 06:26:32;;;;;;;7.57;2.38;;;16.70;56.70;;;;;;5528067;25;20008;-83
2024/04/13 06:28:58;;;;;;;9.15;2.15;;;16.90;54.90;;;;;;5527588;25;20001;-83
2024/04/13 06:31:24;;;;;;;7.20;1.95;;;16.90;54.40;;;;;;5524307;26;20002;-83
2024/04/13 06:34:00;;;;;;;;;;;;;;;;;;;;;
2024/04/13 06:36:43;;;;;;;;;;;;;;;;;;;;;
2024/04/13 06:39:57;;;;;;;;;;;;;;;;;;;;;
2024/04/13 06:42:35;;;;;;;;;;;;;;;;;;;;;
2024/04/13 06:45:04;;;;;;;3.67;1.88;;;19.10;50.60;;;;;;5493111;26;20017;-84
2024/04/13 06:47:40;;;;;;;;;;;;;;;;;;;;;
2024/04/13 06:53:44;;;;;;;;;;;;;;;;;;;;;
2024/04/13 06:59:49;;;;;;;;;;;;;;;;;;;;;
2024/04/13 07:02:16;;;;;;;5.80;1.80;;;22.60;45.50;;;;;;5514957;25;19994;-86
2024/04/13 07:04:42;;;;;;;6.57;2.30;;;23.10;43.90;;;;;;5514834;26;19997;-86
2024/04/13 07:07:11;;;;;;;4.07;2.15;;;23.80;42.40;;;;;;5524243;25;20506;-85
2024/04/13 07:09:37;;;;;;;5.38;1.52;;;24.10;41.10;;;;;;5528093;25;20004;-85
2024/04/13 07:12:03;;;;;;;4.80;2.75;;;23.60;40.60;;;;;;5526622;26;20391;-84
2024/04/13 07:14:28;;;;;;;3.08;1.17;;;23.60;41.50;;;;;;5508637;26;20010;-85
2024/04/13 07:16:57;;;;;;;4.70;1.83;;;24.10;40.30;;;;;;5519483;26;20001;-85
2024/04/13 07:19:23;;;;;;;5.38;1.60;;;24.40;39.60;;;;;;5513896;26;20377;-84
2024/04/13 07:21:49;;;;;;;8.52;1.90;;;24.80;39.80;;;;;;5525516;25;20001;-84
2024/04/13 07:24:15;;;;;;;5.47;1.52;;;24.60;38.70;;;;;;5516915;25;20002;-86
2024/04/13 07:26:41;;;;;;;4.95;1.40;;;24.10;39.20;;;;;;5509702;26;20185;-85
2024/04/13 07:29:07;;;;;;;5.47;2.33;;;23.80;38.90;;;;;;5526674;25;19997;-84
2024/04/13 07:31:32;;;;;;;4.82;2.10;;;23.20;39.70;;;;;;5510723;25;20037;-84
2024/04/13 07:33:58;;;;;;;5.35;1.90;;;23.60;40.20;;;;;;5518710;26;20005;-85
2024/04/13 07:36:24;;;;;;;5.65;1.90;;;24.60;38.90;;;;;;5526585;25;20038;-85
2024/04/13 07:38:50;;;;;;;5.03;2.38;;;24.00;38.50;;;;;;5526353;25;20813;-82
2024/04/13 07:41:15;;;;;;;9.68;2.35;;;23.60;38.80;;;;;;5526293;25;20004;-84
2024/04/13 07:43:41;;;;;;;9.38;5.13;;;23.00;39.50;;;;;;5526748;25;20001;-86
2024/04/13 07:46:07;;;;;;;7.75;1.77;;;22.20;40.50;;;;;;5524972;26;20009;-83
2024/04/13 07:48:33;;;;;;;4.28;1.85;;;21.90;40.70;;;;;;5526857;25;20001;-84
2024/04/13 07:50:59;;;;;;;7.00;2.13;;;21.90;41.00;;;;;;5526766;25;20069;-85
2024/04/13 07:53:25;;;;;;;5.90;2.08;;;22.70;41.20;;;;;;5526818;25;20473;-85
2024/04/13 07:55:57;;;;;;;3.45;1.60;;;23.80;39.80;;;;;;5523939;26;20002;-84
2024/04/13 07:58:23;;;;;;;4.07;1.67;;;24.50;38.10;;;;;;5526891;25;20012;-84
2024/04/13 08:00:49;;;;;;;3.95;1.67;;;23.60;39.20;;;;;;5527347;25;20009;-84
2024/04/13 08:03:16;;;;;;;5.95;1.63;;;23.40;38.70;;;;;;5534669;25;20001;-82
2024/04/13 08:05:42;;;;;;;7.75;2.55;;;23.50;39.60;;;;;;5514787;25;20005;-84
2024/04/13 08:08:08;;;;;;;6.63;2.17;;;24.40;38.90;;;;;;5516954;25;20002;-84
2024/04/13 08:10:39;;;;;;;2.15;1.73;;;25.20;37.50;;;;;;5519195;26;20471;-85
2024/04/13 08:13:07;;;;;;;3.58;1.63;;;24.30;37.30;;;;;;5511048;26;20029;-85
2024/04/13 08:15:36;;;;;;;1.98;1.40;;;24.20;38.90;;;;;;5505673;26;20046;-86
2024/04/13 08:18:09;;;;;;;4.55;1.98;;;24.70;37.80;;;;;;5487211;26;20450;-85
2024/04/13 08:20:35;;;;;;;3.80;1.92;;;24.30;37.80;;;;;;5522749;26;20008;-87
2024/04/13 08:23:01;;;;;;;3.67;1.70;;;24.30;37.80;;;;;;5527281;25;19998;-85
2024/04/13 08:25:27;;;;;;;2.35;1.15;;;23.70;38.50;;;;;;5521272;25;20034;-85
2024/04/13 08:27:54;;;;;;;1.90;1.30;;;23.50;38.90;;;;;;5526775;25;20001;-84
2024/04/13 08:30:19;;;;;;;3.33;1.50;;;23.20;38.80;;;;;;5525257;25;20001;-84
2024/04/13 08:32:48;;;;;;;7.18;2.17;;;22.60;40.00;;;;;;5541807;26;20051;-84
2024/04/13 08:35:14;;;;;;;2.72;1.67;;;22.20;40.50;;;;;;5546018;25;20001;-85
2024/04/13 08:37:40;;;;;;;4.70;1.90;;;22.00;40.60;;;;;;5515970;25;20005;-86
2024/04/13 08:40:10;;;;;;;5.90;2.20;;;22.40;41.10;;;;;;5522691;26;20009;-84
2024/04/13 08:42:39;;;;;;;7.13;1.65;;;23.30;40.80;;;;;;5526156;26;19997;-89
2024/04/13 08:45:10;;;;;;;5.43;1.67;;;24.40;39.20;;;;;;5513955;26;20013;-88
2024/04/13 08:47:43;;;;;;;8.38;1.95;;;25.00;38.00;;;;;;5536604;25;20451;-87
2024/04/13 08:50:11;;;;;;;2.05;1.63;;;24.30;38.30;;;;;;5519489;26;20012;-91
2024/04/13 08:52:39;;;;;;;3.20;1.42;;;23.90;38.60;;;;;;5532463;25;20366;-83
2024/04/13 08:55:06;;;;;;;5.50;2.28;;;23.30;38.90;;;;;;5530453;25;19998;-88
2024/04/13 08:57:38;;;;;;;7.05;2.25;;;22.00;40.50;;;;;;5534771;25;19994;-87
2024/04/13 09:00:13;;;;;;;3.95;1.60;;;21.20;41.60;;;;;;5535075;25;19997;-84
2024/04/13 09:02:42;;;;;;;5.22;2.63;;;20.30;43.00;;;;;;5527251;26;20007;-87
2024/04/13 09:05:10;;;;;;;3.50;1.98;;;19.60;44.30;;;;;;5525390;26;19997;-88
2024/04/13 09:07:36;;;;;;;5.38;2.40;;;19.30;45.10;;;;;;5533203;25;20042;-84
2024/04/13 09:10:04;;;;;;;3.50;2.00;;;19.60;44.60;;;;;;5508147;26;20043;-85
2024/04/13 09:12:30;;;;;;;4.45;2.03;;;19.30;44.80;;;;;;5529660;25;20552;-87
2024/04/13 09:15:07;;;;;;;;;;;19.30;45.20;;;;;;5528073;25;20347;-83
2024/04/13 09:17:33;;;;;;;4.07;2.15;;;19.70;45.40;;;;;;5525004;25;19956;-86
2024/04/13 09:20:09;;;;;;;4.32;1.50;;;20.50;44.40;;;;;;5523849;26;20011;-89
2024/04/13 09:22:40;;;;;;;5.47;2.07;;;20.80;43.40;;;;;;5498426;26;20017;-86
2024/04/13 09:25:08;;;;;;;3.53;2.13;;;20.90;43.60;;;;;;5510938;26;20253;-86
2024/04/13 09:27:34;;;;;;;2.85;2.17;;;20.80;43.20;;;;;;5510652;25;20371;-86
2024/04/13 09:30:13;;;;;;;3.58;1.52;;;20.20;43.70;;;;;;5512375;26;19997;-85
2024/04/13 09:32:43;;;;;;;5.20;1.73;;;19.40;44.60;;;;;;5526766;25;20009;-87
2024/04/13 09:35:11;;;;;;;3.05;1.85;;;18.60;45.90;;;;;;5510557;26;20026;-86
2024/04/13 09:37:36;;;;;;;;;;;18.00;46.80;;;;;;5527366;25;20047;-85
2024/04/13 09:40:54;;;;;;;;;;;;;;;;;;;;;
2024/04/13 09:46:36;;;;;;;6.40;2.20;;;16.50;49.40;;;;;;5526924;25;20013;-86
2024/04/13 09:49:27;;;;;;;4.13;1.67;;;16.30;50.50;;;;;;5518259;25;20010;-85
2024/04/13 09:56:10;;;;;;;;;;;;;;;;;;;;;
2024/04/13 09:59:07;;;;;;;;;;;;;;;;;;;;;
2024/04/13 10:05:55;;;;;;;;;;;;;;;;;;;;;
2024/04/13 10:08:28;;;;;;;5.63;1.52;;;15.70;52.40;;;;;;5492199;26;20009;-84
2024/04/13 10:11:36;;;;;;;1.90;1.10;;;15.50;53.60;;;;;;5523121;26;20005;-85
2024/04/13 10:14:54;;;;;;;;;;;;;;;;;;;;;
2024/04/13 10:18:07;;;;;;;;;;;;;;;;;;;;;
2024/04/13 10:21:12;;;;;;;;;;;;;;;;;;;;;
2024/04/13 10:23:42;;;;;;;;;;;17.50;51.40;;;;;;5525869;26;20012;-88
2024/04/13 10:26:08;;;;;;;4.88;1.58;;;17.40;50.50;;;;;;5511415;25;20371;-86
2024/04/13 10:28:34;;;;;;;5.97;1.85;;;17.00;50.90;;;;;;5507738;26;19994;-85
2024/04/13 10:31:00;;;;;;;4.90;1.92;;;16.60;51.50;;;;;;5516683;25;20058;-86
2024/04/13 10:33:28;;;;;;;4.78;1.70;;;16.40;51.90;;;;;;5489615;26;20020;-85
2024/04/13 10:36:09;;;;;;;5.25;2.05;;;16.20;52.30;;;;;;5520514;26;20315;-85
2024/04/13 10:38:36;;;;;;;6.97;2.28;;;16.10;52.70;;;;;;5502962;26;20009;-87
2024/04/13 10:41:03;;;;;;;2.67;1.48;;;15.90;53.40;;;;;;5524556;26;20425;-86
2024/04/13 10:43:30;;;;;;;7.00;2.00;;;15.80;53.40;;;;;;5500333;26;20116;-89
2024/04/13 10:46:00;;;;;;;4.63;1.55;;;15.60;54.10;;;;;;5522896;25;20010;-87
2024/04/13 10:48:31;;;;;;;5.18;1.77;;;15.50;54.20;;;;;;5505284;25;20029;-85
2024/04/13 10:50:58;;;;;;;4.97;1.60;;;15.50;54.70;;;;;;5512970;25;20002;-85
2024/04/13 10:53:26;;;;;;;6.05;1.65;;;15.50;54.50;;;;;;5528852;26;20001;-87
2024/04/13 10:55:52;;;;;;;6.22;2.60;;;15.30;54.60;;;;;;5530690;26;20002;-86
2024/04/13 10:58:19;;;;;;;4.85;1.77;;;15.40;55.20;;;;;;5501842;25;19999;-86
2024/04/13 11:00:49;;;;;;;3.60;1.90;;;15.60;55.00;;;;;;5523982;26;20017;-87
2024/04/13 11:03:16;;;;;;;6.10;1.95;;;15.80;54.90;;;;;;5526967;26;20326;-87
2024/04/13 11:05:46;;;;;;;3.88;1.50;;;16.00;54.40;;;;;;5528569;25;20048;-88
2024/04/13 11:08:12;;;;;;;2.33;1.45;;;16.10;53.90;;;;;;5527600;25;20006;-84
2024/04/13 11:10:45;;;;;;;8.27;1.88;;;16.10;54.00;;;;;;5527233;25;20012;-85
2024/04/13 11:13:11;;;;;;;3.25;1.48;;;16.10;53.90;;;;;;5527762;26;20469;-86
2024/04/13 11:15:37;;;;;;;4.38;2.13;;;16.10;54.10;;;;;;5525247;26;20009;-85
2024/04/13 11:18:03;;;;;;;3.33;2.05;;;16.10;54.10;;;;;;5514512;25;20065;-87
2024/04/13 11:20:31;;;;;;;4.40;1.85;;;16.10;53.90;;;;;;5527317;26;20086;-86
2024/04/13 11:22:58;;;;;;;3.88;1.88;;;16.00;54.50;;;;;;5528105;25;20420;-86
2024/04/13 11:25:24;;;;;;;5.93;2.15;;;16.20;54.30;;;;;;5529872;25;20013;-84
2024/04/13 11:27:50;;;;;;;4.22;1.80;;;16.50;54.10;;;;;;5535171;26;20002;-86
2024/04/13 11:30:18;;;;;;;4.70;2.08;;;16.60;53.60;;;;;;5544132;26;20021;-87
2024/04/13 11:32:44;;;;;;;4.82;1.48;;;16.60;53.20;;;;;;5502617;25;20366;-87
2024/04/13 11:35:17;;;;;;;3.47;1.80;;;16.70;53.10;;;;;;5513072;25;20082;-86
2024/04/13 11:38:00;;;;;;;3.78;2.30;;;16.60;53.80;;;;;;5519082;26;19997;-86
2024/04/13 11:40:30;;;;;;;3.28;1.77;;;16.80;53.60;;;;;;5513936;26;20013;-87
2024/04/13 11:42:59;;;;;;;4.55;1.65;;;16.70;52.80;;;;;;5525371;26;20018;-88
2024/04/13 11:45:25;;;;;;;5.18;2.22;;;16.70;53.10;;;;;;5541264;26;19997;-83
2024/04/13 11:47:53;;;;;;;4.70;1.60;;;16.80;53.30;;;;;;5520518;25;20017;-86
2024/04/13 11:50:20;;;;;;;5.88;2.22;;;16.80;53.00;;;;;;5545439;26;19993;-88
2024/04/13 11:52:46;;;;;;;2.03;1.15;;;16.50;53.30;;;;;;5525583;25;19998;-88
2024/04/13 11:55:12;;;;;;;4.33;1.33;;;16.30;53.70;;;;;;5502432;26;19994;-88
2024/04/13 11:57:51;;;;;;;3.58;1.38;;;16.10;54.10;;;;;;5523146;26;20008;-89
2024/04/13 12:00:18;;;;;;;6.25;1.60;;;15.90;54.40;;;;;;5476562;26;20004;-88
2024/04/13 12:02:45;;;;;;;2.63;1.75;;;15.70;54.90;;;;;;5504635;26;19994;-87
2024/04/13 12:05:11;;;;;;;5.53;2.33;;;15.70;55.50;;;;;;5525217;26;20023;-87
2024/04/13 12:07:37;;;;;;;3.90;1.88;;;15.80;55.30;;;;;;5515293;26;19993;-88
2024/04/13 12:10:03;;;;;;;6.75;1.90;;;15.90;55.00;;;;;;5508004;26;20035;-88
2024/04/13 12:12:28;;;;;;;6.70;1.95;;;15.80;55.40;;;;;;5518079;26;19998;-86
2024/04/13 12:14:54;;;;;;;5.90;1.85;;;15.80;55.40;;;;;;5517361;26;20009;-85
2024/04/13 12:17:21;;;;;;;6.10;2.03;;;15.80;55.50;;;;;;5506148;25;20021;-86
2024/04/13 12:19:47;;;;;;;4.27;1.83;;;15.70;55.50;;;;;;5532087;26;19993;-84
2024/04/13 12:22:13;;;;;;;5.40;1.67;;;15.60;55.80;;;;;;5546851;25;20012;-85
2024/04/13 12:24:38;;;;;;;4.35;1.88;;;15.40;56.50;;;;;;5544942;25;20037;-83
2024/04/13 12:27:05;;;;;;;4.72;1.88;;;15.40;56.40;;;;;;5532699;26;20391;-83
2024/04/13 12:29:34;;;;;;;4.28;2.20;;;15.60;56.40;;;;;;5523325;25;20009;-82
2024/04/13 12:32:00;;;;;;;6.25;2.17;;;15.60;56.40;;;;;;5514678;26;20445;-85
2024/04/13 12:34:26;;;;;;;4.57;2.20;;;15.80;56.40;;;;;;5526042;25;20105;-87
2024/04/13 12:36:55;;;;;;;7.53;1.80;;;15.70;55.90;;;;;;5527652;25;20016;-83
2024/04/13 12:39:21;;;;;;;4.07;1.90;;;15.80;56.10;;;;;;5525446;26;20001;-81
2024/04/13 12:41:47;;;;;;;8.15;2.08;;;15.90;55.90;;;;;;5503043;26;20354;-84
2024/04/13 12:44:13;;;;;;;10.75;2.30;;;15.80;55.80;;;;;;5526353;26;20005;-83
2024/04/13 12:46:39;;;;;;;5.82;1.90;;;15.90;56.30;;;;;;5526850;26;19997;-84
2024/04/13 12:49:05;;;;;;;7.20;1.85;;;16.00;55.90;;;;;;5518118;25;20342;-83
2024/04/13 12:51:31;;;;;;;2.83;1.75;;;15.90;55.80;;;;;;5526746;25;20073;-83
2024/04/13 12:53:59;;;;;;;9.02;2.88;;;15.90;56.60;;;;;;5526954;25;20453;-82
2024/04/13 12:56:25;;;;;;;8.52;2.75;;;15.90;55.80;;;;;;5526873;25;20074;-83
2024/04/13 12:58:51;;;;;;;4.13;1.85;;;15.80;56.40;;;;;;5503120;26;20009;-82
2024/04/13 13:01:17;;;;;;;5.93;2.67;;;15.80;56.50;;;;;;5510634;25;20008;-83
2024/04/13 13:03:44;;;;;;;6.40;2.15;;;15.80;56.70;;;;;;5523703;26;20001;-83
2024/04/13 13:06:10;;;;;;;5.20;2.70;;;16.00;56.40;;;;;;5525050;26;20002;-84
2024/04/13 13:08:36;;;;;;;4.85;2.20;;;16.00;56.60;;;;;;5525802;25;20016;-84
2024/04/13 13:11:03;;;;;;;4.50;2.30;;;16.10;56.40;;;;;;5502738;25;20491;-83
2024/04/13 13:13:28;;;;;;;4.18;2.25;;;15.80;56.40;;;;;;5516800;26;19997;-83
2024/04/13 13:15:55;;;;;;;9.93;2.33;;;15.60;56.90;;;;;;5525078;25;20034;-83
2024/04/13 13:18:21;;;;;;;15.18;2.80;;;15.50;57.10;;;;;;5525506;26;20001;-85
2024/04/13 13:20:47;;;;;;;8.30;2.10;;;15.60;57.50;;;;;;5524856;25;19997;-84
2024/04/13 13:23:13;;;;;;;10.50;2.28;;;15.60;57.40;;;;;;5525109;25;19998;-83
2024/04/13 13:25:39;;;;;;;9.63;3.78;;;15.50;57.40;;;;;;5503569;25;20478;-84
2024/04/13 13:28:06;;;;;;;10.27;4.50;;;15.50;57.60;;;;;;5510087;25;20017;-84
2024/04/13 13:30:36;;;;;;;10.33;3.67;;;15.70;57.70;;;;;;5496582;26;20048;-84
2024/04/13 13:33:02;;;;;;;8.57;3.35;;;15.80;57.60;;;;;;5506820;26;20275;-83